sensor_id;sensor_type;location;lat;lon;timestamp;temperature;humidity
23087;DHT22;11712;51.134;4.156;2022-10-18T00:00:37;17.30;99.90
23087;DHT22;11712;51.134;4.156;2022-10-18T00:03:03;17.20;99.90
23087;DHT22;11712;51.134;4.156;2022-10-18T00:05:28;17.20;99.90
23087;DHT22;11712;51.134;4.156;2022-10-18T00:07:54;17.30;99.90
23087;DHT22;11712;51.134;4.156;2022-10-18T00:10:20;17.30;99.90
23087;DHT22;11712;51.134;4.156;2022-10-18T00:12:46;17.30;99.90
23087;DHT22;11712;51.134;4.156;2022-10-18T00:15:11;17.20;99.90
23087;DHT22;11712;51.134;4.156;2022-10-18T00:19:03;17.00;99.90
23087;DHT22;11712;51.134;4.156;2022-10-18T00:21:28;17.00;99.90
23087;DHT22;11712;51.134;4.156;2022-10-18T00:23:54;17.10;99.90
23087;DHT22;11712;51.134;4.156;2022-10-18T00:26:25;17.30;99.90
23087;DHT22;11712;51.134;4.156;2022-10-18T00:28:56;17.30;99.90
23087;DHT22;11712;51.134;4.156;2022-10-18T00:31:24;17.30;99.90
23087;DHT22;11712;51.134;4.156;2022-10-18T00:33:56;17.40;99.90
23087;DHT22;11712;51.134;4.156;2022-10-18T00:36:23;17.40;99.90
23087;DHT22;11712;51.134;4.156;2022-10-18T00:38:49;17.50;99.90
23087;DHT22;11712;51.134;4.156;2022-10-18T00:41:18;17.50;99.90
23087;DHT22;11712;51.134;4.156;2022-10-18T00:43:57;17.50;99.90
23087;DHT22;11712;51.134;4.156;2022-10-18T00:46:24;17.40;99.90
23087;DHT22;11712;51.134;4.156;2022-10-18T00:48:50;17.20;99.90
23087;DHT22;11712;51.134;4.156;2022-10-18T00:51:18;17.40;99.90
23087;DHT22;11712;51.134;4.156;2022-10-18T00:53:46;17.30;99.90
23087;DHT22;11712;51.134;4.156;2022-10-18T00:56:12;17.30;99.90
23087;DHT22;11712;51.134;4.156;2022-10-18T00:58:38;17.30;99.90
23087;DHT22;11712;51.134;4.156;2022-10-18T01:01:04;17.30;99.90
23087;DHT22;11712;51.134;4.156;2022-10-18T01:03:30;17.30;99.90
23087;DHT22;11712;51.134;4.156;2022-10-18T01:05:56;17.30;99.90
23087;DHT22;11712;51.134;4.156;2022-10-18T01:16:38;17.30;99.90
23087;DHT22;11712;51.134;4.156;2022-10-18T01:22:54;17.00;99.90
23087;DHT22;11712;51.134;4.156;2022-10-18T01:31:24;17.00;99.90
23087;DHT22;11712;51.134;4.156;2022-10-18T01:34:04;17.10;99.90
23087;DHT22;11712;51.134;4.156;2022-10-18T01:36:37;17.10;99.90
23087;DHT22;11712;51.134;4.156;2022-10-18T01:39:11;17.00;99.90
23087;DHT22;11712;51.134;4.156;2022-10-18T01:41:38;17.10;99.90
23087;DHT22;11712;51.134;4.156;2022-10-18T01:44:07;17.10;99.90
23087;DHT22;11712;51.134;4.156;2022-10-18T01:46:34;17.20;99.90
23087;DHT22;11712;51.134;4.156;2022-10-18T01:49:01;17.50;99.90
23087;DHT22;11712;51.134;4.156;2022-10-18T01:51:28;17.40;99.90
23087;DHT22;11712;51.134;4.156;2022-10-18T01:53:54;17.40;99.90
23087;DHT22;11712;51.134;4.156;2022-10-18T01:56:36;17.40;99.90
23087;DHT22;11712;51.134;4.156;2022-10-18T01:59:21;17.50;99.90
23087;DHT22;11712;51.134;4.156;2022-10-18T02:05:05;17.10;99.90
23087;DHT22;11712;51.134;4.156;2022-10-18T02:08:11;16.80;99.90
23087;DHT22;11712;51.134;4.156;2022-10-18T02:10:45;16.70;99.90
23087;DHT22;11712;51.134;4.156;2022-10-18T02:13:15;16.80;99.90
23087;DHT22;11712;51.134;4.156;2022-10-18T02:15:48;16.70;99.90
23087;DHT22;11712;51.134;4.156;2022-10-18T02:18:21;16.70;99.90
23087;DHT22;11712;51.134;4.156;2022-10-18T02:20:47;16.60;99.90
23087;DHT22;11712;51.134;4.156;2022-10-18T02:23:15;16.60;99.90
23087;DHT22;11712;51.134;4.156;2022-10-18T02:25:45;16.60;99.90
23087;DHT22;11712;51.134;4.156;2022-10-18T02:28:10;16.50;99.90
23087;DHT22;11712;51.134;4.156;2022-10-18T02:36:30;16.40;99.90
23087;DHT22;11712;51.134;4.156;2022-10-18T02:39:02;16.60;99.90
23087;DHT22;11712;51.134;4.156;2022-10-18T02:41:30;16.60;99.90
23087;DHT22;11712;51.134;4.156;2022-10-18T02:43:56;16.70;99.90
23087;DHT22;11712;51.134;4.156;2022-10-18T02:46:21;16.80;99.90
23087;DHT22;11712;51.134;4.156;2022-10-18T02:48:47;16.80;99.90
23087;DHT22;11712;51.134;4.156;2022-10-18T02:51:13;16.60;99.90
23087;DHT22;11712;51.134;4.156;2022-10-18T02:53:39;16.40;99.90
23087;DHT22;11712;51.134;4.156;2022-10-18T02:56:05;16.30;99.90
23087;DHT22;11712;51.134;4.156;2022-10-18T02:58:30;16.30;99.90
23087;DHT22;11712;51.134;4.156;2022-10-18T03:00:56;16.40;99.90
23087;DHT22;11712;51.134;4.156;2022-10-18T03:03:22;16.70;99.90
23087;DHT22;11712;51.134;4.156;2022-10-18T03:05:51;16.60;99.90
23087;DHT22;11712;51.134;4.156;2022-10-18T03:08:17;16.40;99.90
23087;DHT22;11712;51.134;4.156;2022-10-18T03:10:44;16.30;99.90
23087;DHT22;11712;51.134;4.156;2022-10-18T03:13:10;16.50;99.90
23087;DHT22;11712;51.134;4.156;2022-10-18T03:15:36;16.50;99.90
23087;DHT22;11712;51.134;4.156;2022-10-18T03:18:02;16.50;99.90
23087;DHT22;11712;51.134;4.156;2022-10-18T03:20:28;16.50;99.90
23087;DHT22;11712;51.134;4.156;2022-10-18T03:22:53;16.60;99.90
23087;DHT22;11712;51.134;4.156;2022-10-18T03:25:19;16.50;99.90
23087;DHT22;11712;51.134;4.156;2022-10-18T03:27:44;16.50;99.90
23087;DHT22;11712;51.134;4.156;2022-10-18T03:30:10;16.50;99.90
23087;DHT22;11712;51.134;4.156;2022-10-18T03:32:37;16.60;99.90
23087;DHT22;11712;51.134;4.156;2022-10-18T03:35:04;16.70;99.90
23087;DHT22;11712;51.134;4.156;2022-10-18T03:37:30;16.50;99.90
23087;DHT22;11712;51.134;4.156;2022-10-18T03:39:56;16.40;99.90
23087;DHT22;11712;51.134;4.156;2022-10-18T03:42:22;16.50;99.90
23087;DHT22;11712;51.134;4.156;2022-10-18T03:44:47;16.70;99.90
23087;DHT22;11712;51.134;4.156;2022-10-18T03:47:13;16.80;99.90
23087;DHT22;11712;51.134;4.156;2022-10-18T03:49:39;16.70;99.90
23087;DHT22;11712;51.134;4.156;2022-10-18T03:52:04;16.70;99.90
23087;DHT22;11712;51.134;4.156;2022-10-18T03:54:30;16.90;99.90
23087;DHT22;11712;51.134;4.156;2022-10-18T03:56:56;16.90;99.90
23087;DHT22;11712;51.134;4.156;2022-10-18T03:59:21;16.80;99.90
23087;DHT22;11712;51.134;4.156;2022-10-18T04:01:47;16.90;99.90
23087;DHT22;11712;51.134;4.156;2022-10-18T04:04:13;17.10;99.90
23087;DHT22;11712;51.134;4.156;2022-10-18T04:06:39;16.90;99.90
23087;DHT22;11712;51.134;4.156;2022-10-18T04:09:05;16.80;99.90
23087;DHT22;11712;51.134;4.156;2022-10-18T04:11:30;16.80;99.90
23087;DHT22;11712;51.134;4.156;2022-10-18T04:13:56;16.90;99.90
23087;DHT22;11712;51.134;4.156;2022-10-18T04:16:22;16.90;99.90
23087;DHT22;11712;51.134;4.156;2022-10-18T04:18:48;17.00;99.90
23087;DHT22;11712;51.134;4.156;2022-10-18T04:21:13;16.90;99.90
23087;DHT22;11712;51.134;4.156;2022-10-18T04:23:39;16.80;99.90
23087;DHT22;11712;51.134;4.156;2022-10-18T04:26:05;16.70;99.90
23087;DHT22;11712;51.134;4.156;2022-10-18T04:28:32;16.80;99.90
23087;DHT22;11712;51.134;4.156;2022-10-18T04:30:58;16.80;99.90
23087;DHT22;11712;51.134;4.156;2022-10-18T04:33:24;16.90;99.90
23087;DHT22;11712;51.134;4.156;2022-10-18T04:35:51;16.80;99.90
23087;DHT22;11712;51.134;4.156;2022-10-18T04:38:17;16.80;99.90
23087;DHT22;11712;51.134;4.156;2022-10-18T04:40:43;16.80;99.90
23087;DHT22;11712;51.134;4.156;2022-10-18T04:43:09;16.80;99.90
23087;DHT22;11712;51.134;4.156;2022-10-18T04:45:35;16.80;99.90
23087;DHT22;11712;51.134;4.156;2022-10-18T04:48:00;16.90;99.90
23087;DHT22;11712;51.134;4.156;2022-10-18T04:50:26;17.10;99.90
23087;DHT22;11712;51.134;4.156;2022-10-18T04:52:52;17.00;99.90
23087;DHT22;11712;51.134;4.156;2022-10-18T04:55:18;16.60;99.90
23087;DHT22;11712;51.134;4.156;2022-10-18T04:57:44;16.40;99.90
23087;DHT22;11712;51.134;4.156;2022-10-18T05:00:10;16.20;99.90
23087;DHT22;11712;51.134;4.156;2022-10-18T05:02:36;16.30;99.90
23087;DHT22;11712;51.134;4.156;2022-10-18T05:05:01;16.40;99.90
23087;DHT22;11712;51.134;4.156;2022-10-18T05:07:27;16.40;99.90
23087;DHT22;11712;51.134;4.156;2022-10-18T05:09:53;16.40;99.90
23087;DHT22;11712;51.134;4.156;2022-10-18T05:12:18;16.30;99.90
23087;DHT22;11712;51.134;4.156;2022-10-18T05:14:44;16.40;99.90
23087;DHT22;11712;51.134;4.156;2022-10-18T05:17:10;16.30;99.90
23087;DHT22;11712;51.134;4.156;2022-10-18T05:19:35;16.30;99.90
23087;DHT22;11712;51.134;4.156;2022-10-18T05:22:01;16.20;99.90
23087;DHT22;11712;51.134;4.156;2022-10-18T05:24:27;16.10;99.90
23087;DHT22;11712;51.134;4.156;2022-10-18T05:26:52;16.10;99.90
23087;DHT22;11712;51.134;4.156;2022-10-18T05:29:18;16.00;99.90
23087;DHT22;11712;51.134;4.156;2022-10-18T05:31:44;16.20;99.90
23087;DHT22;11712;51.134;4.156;2022-10-18T05:34:09;16.30;99.90
23087;DHT22;11712;51.134;4.156;2022-10-18T05:36:35;16.30;99.90
23087;DHT22;11712;51.134;4.156;2022-10-18T05:39:03;16.20;99.90
23087;DHT22;11712;51.134;4.156;2022-10-18T05:41:29;15.90;99.90
23087;DHT22;11712;51.134;4.156;2022-10-18T05:43:55;15.90;99.90
23087;DHT22;11712;51.134;4.156;2022-10-18T05:46:21;15.80;99.90
23087;DHT22;11712;51.134;4.156;2022-10-18T05:48:50;15.70;99.90
23087;DHT22;11712;51.134;4.156;2022-10-18T05:51:17;15.50;99.90
23087;DHT22;11712;51.134;4.156;2022-10-18T05:53:43;15.50;99.90
23087;DHT22;11712;51.134;4.156;2022-10-18T05:56:08;15.60;99.90
23087;DHT22;11712;51.134;4.156;2022-10-18T05:58:36;15.60;99.90
23087;DHT22;11712;51.134;4.156;2022-10-18T06:01:04;15.70;99.90
23087;DHT22;11712;51.134;4.156;2022-10-18T06:03:29;15.80;99.90
23087;DHT22;11712;51.134;4.156;2022-10-18T06:06:06;15.70;99.90
23087;DHT22;11712;51.134;4.156;2022-10-18T06:08:33;15.70;99.90
23087;DHT22;11712;51.134;4.156;2022-10-18T06:10:59;15.60;99.90
23087;DHT22;11712;51.134;4.156;2022-10-18T06:13:24;15.60;99.90
23087;DHT22;11712;51.134;4.156;2022-10-18T06:15:55;15.60;99.90
23087;DHT22;11712;51.134;4.156;2022-10-18T06:18:21;15.80;99.90
23087;DHT22;11712;51.134;4.156;2022-10-18T06:20:47;15.70;99.90
23087;DHT22;11712;51.134;4.156;2022-10-18T06:23:13;15.60;99.90
23087;DHT22;11712;51.134;4.156;2022-10-18T06:25:38;15.60;99.90
23087;DHT22;11712;51.134;4.156;2022-10-18T06:28:05;15.60;99.90
23087;DHT22;11712;51.134;4.156;2022-10-18T06:30:31;15.50;99.90
23087;DHT22;11712;51.134;4.156;2022-10-18T06:32:59;15.40;99.90
23087;DHT22;11712;51.134;4.156;2022-10-18T06:35:25;15.30;99.90
23087;DHT22;11712;51.134;4.156;2022-10-18T06:37:50;15.30;99.90
23087;DHT22;11712;51.134;4.156;2022-10-18T06:40:16;15.40;99.90
23087;DHT22;11712;51.134;4.156;2022-10-18T06:42:42;15.30;99.90
23087;DHT22;11712;51.134;4.156;2022-10-18T06:45:08;15.10;99.90
23087;DHT22;11712;51.134;4.156;2022-10-18T06:47:33;14.80;99.90
23087;DHT22;11712;51.134;4.156;2022-10-18T06:49:59;14.50;99.90
23087;DHT22;11712;51.134;4.156;2022-10-18T06:52:25;14.40;99.90
23087;DHT22;11712;51.134;4.156;2022-10-18T06:54:51;14.40;99.90
23087;DHT22;11712;51.134;4.156;2022-10-18T06:57:17;14.40;99.90
23087;DHT22;11712;51.134;4.156;2022-10-18T06:59:43;14.50;99.90
23087;DHT22;11712;51.134;4.156;2022-10-18T07:02:14;14.40;99.90
23087;DHT22;11712;51.134;4.156;2022-10-18T07:04:40;14.20;99.90
23087;DHT22;11712;51.134;4.156;2022-10-18T07:07:06;14.30;99.90
23087;DHT22;11712;51.134;4.156;2022-10-18T07:09:31;14.30;99.90
23087;DHT22;11712;51.134;4.156;2022-10-18T07:11:57;14.40;99.90
23087;DHT22;11712;51.134;4.156;2022-10-18T07:14:23;14.50;99.90
23087;DHT22;11712;51.134;4.156;2022-10-18T07:16:48;14.70;99.90
23087;DHT22;11712;51.134;4.156;2022-10-18T07:19:14;14.80;99.90
23087;DHT22;11712;51.134;4.156;2022-10-18T07:21:40;14.80;99.90
23087;DHT22;11712;51.134;4.156;2022-10-18T07:24:06;14.70;99.90
23087;DHT22;11712;51.134;4.156;2022-10-18T07:26:33;14.60;99.90
23087;DHT22;11712;51.134;4.156;2022-10-18T07:29:05;14.70;99.90
23087;DHT22;11712;51.134;4.156;2022-10-18T07:31:31;14.70;99.90
23087;DHT22;11712;51.134;4.156;2022-10-18T07:33:57;14.70;99.90
23087;DHT22;11712;51.134;4.156;2022-10-18T07:36:23;14.60;99.90
23087;DHT22;11712;51.134;4.156;2022-10-18T07:38:53;14.60;99.90
23087;DHT22;11712;51.134;4.156;2022-10-18T07:41:19;14.70;99.90
23087;DHT22;11712;51.134;4.156;2022-10-18T07:43:46;14.60;99.90
23087;DHT22;11712;51.134;4.156;2022-10-18T07:46:13;14.70;99.90
23087;DHT22;11712;51.134;4.156;2022-10-18T07:48:39;14.70;99.90
23087;DHT22;11712;51.134;4.156;2022-10-18T07:51:05;14.90;99.90
23087;DHT22;11712;51.134;4.156;2022-10-18T07:53:30;14.90;99.90
23087;DHT22;11712;51.134;4.156;2022-10-18T07:56:00;15.10;99.90
23087;DHT22;11712;51.134;4.156;2022-10-18T07:58:26;15.40;99.90
23087;DHT22;11712;51.134;4.156;2022-10-18T08:00:52;15.50;99.90
23087;DHT22;11712;51.134;4.156;2022-10-18T08:03:18;15.70;99.90
23087;DHT22;11712;51.134;4.156;2022-10-18T08:05:49;15.90;99.90
23087;DHT22;11712;51.134;4.156;2022-10-18T08:08:15;16.00;99.90
23087;DHT22;11712;51.134;4.156;2022-10-18T08:10:40;16.20;99.90
23087;DHT22;11712;51.134;4.156;2022-10-18T08:13:06;16.20;99.90
23087;DHT22;11712;51.134;4.156;2022-10-18T08:15:32;16.20;99.90
23087;DHT22;11712;51.134;4.156;2022-10-18T08:17:57;16.20;99.90
23087;DHT22;11712;51.134;4.156;2022-10-18T08:20:23;16.00;99.90
23087;DHT22;11712;51.134;4.156;2022-10-18T08:22:49;15.80;99.90
23087;DHT22;11712;51.134;4.156;2022-10-18T08:25:15;15.80;99.90
23087;DHT22;11712;51.134;4.156;2022-10-18T08:27:41;15.80;99.90
23087;DHT22;11712;51.134;4.156;2022-10-18T08:30:07;15.80;99.90
23087;DHT22;11712;51.134;4.156;2022-10-18T08:32:34;15.90;99.90
23087;DHT22;11712;51.134;4.156;2022-10-18T08:35:00;15.90;99.90
23087;DHT22;11712;51.134;4.156;2022-10-18T08:37:25;15.90;99.90
23087;DHT22;11712;51.134;4.156;2022-10-18T08:39:51;16.00;99.90
23087;DHT22;11712;51.134;4.156;2022-10-18T08:44:54;16.20;99.90
23087;DHT22;11712;51.134;4.156;2022-10-18T08:47:23;16.40;99.90
23087;DHT22;11712;51.134;4.156;2022-10-18T08:49:57;16.40;99.90
23087;DHT22;11712;51.134;4.156;2022-10-18T08:52:31;16.50;99.90
23087;DHT22;11712;51.134;4.156;2022-10-18T08:55:08;16.50;99.90
23087;DHT22;11712;51.134;4.156;2022-10-18T08:57:35;16.60;99.90
23087;DHT22;11712;51.134;4.156;2022-10-18T09:00:15;16.50;99.90
23087;DHT22;11712;51.134;4.156;2022-10-18T09:08:31;16.70;99.90
23087;DHT22;11712;51.134;4.156;2022-10-18T09:14:19;16.50;99.90
23087;DHT22;11712;51.134;4.156;2022-10-18T09:22:21;16.80;99.90
23087;DHT22;11712;51.134;4.156;2022-10-18T09:25:50;16.80;99.90
23087;DHT22;11712;51.134;4.156;2022-10-18T09:31:06;17.10;99.90
23087;DHT22;11712;51.134;4.156;2022-10-18T09:33:53;17.20;99.90
23087;DHT22;11712;51.134;4.156;2022-10-18T09:36:22;17.40;99.90
23087;DHT22;11712;51.134;4.156;2022-10-18T09:38:56;17.50;99.90
23087;DHT22;11712;51.134;4.156;2022-10-18T09:41:56;17.30;99.90
23087;DHT22;11712;51.134;4.156;2022-10-18T09:44:29;17.20;99.90
23087;DHT22;11712;51.134;4.156;2022-10-18T09:47:18;17.20;99.90
23087;DHT22;11712;51.134;4.156;2022-10-18T09:49:53;17.40;99.90
23087;DHT22;11712;51.134;4.156;2022-10-18T09:52:25;17.60;99.90
23087;DHT22;11712;51.134;4.156;2022-10-18T09:54:58;17.60;99.90
23087;DHT22;11712;51.134;4.156;2022-10-18T09:59:54;17.80;99.90
23087;DHT22;11712;51.134;4.156;2022-10-18T10:02:21;17.80;99.90
23087;DHT22;11712;51.134;4.156;2022-10-18T10:04:48;17.60;99.90
23087;DHT22;11712;51.134;4.156;2022-10-18T10:07:19;17.70;99.90
23087;DHT22;11712;51.134;4.156;2022-10-18T10:09:56;17.90;99.90
23087;DHT22;11712;51.134;4.156;2022-10-18T10:12:34;17.70;99.90
23087;DHT22;11712;51.134;4.156;2022-10-18T10:15:19;17.90;99.90
23087;DHT22;11712;51.134;4.156;2022-10-18T10:23:08;18.10;99.90
23087;DHT22;11712;51.134;4.156;2022-10-18T10:25:39;18.00;99.90
23087;DHT22;11712;51.134;4.156;2022-10-18T10:28:17;18.20;99.90
23087;DHT22;11712;51.134;4.156;2022-10-18T10:30:44;18.40;99.90
23087;DHT22;11712;51.134;4.156;2022-10-18T10:33:36;18.50;99.90
23087;DHT22;11712;51.134;4.156;2022-10-18T10:36:05;18.60;99.90
23087;DHT22;11712;51.134;4.156;2022-10-18T10:38:39;18.50;99.90
23087;DHT22;11712;51.134;4.156;2022-10-18T10:41:18;18.40;99.90
23087;DHT22;11712;51.134;4.156;2022-10-18T10:43:44;18.40;99.90
23087;DHT22;11712;51.134;4.156;2022-10-18T10:46:15;18.40;99.90
23087;DHT22;11712;51.134;4.156;2022-10-18T10:48:51;18.40;99.90
23087;DHT22;11712;51.134;4.156;2022-10-18T10:51:31;18.50;99.90
23087;DHT22;11712;51.134;4.156;2022-10-18T10:59:49;19.00;99.90
23087;DHT22;11712;51.134;4.156;2022-10-18T11:04:48;19.10;99.90
23087;DHT22;11712;51.134;4.156;2022-10-18T11:07:42;19.10;99.90
23087;DHT22;11712;51.134;4.156;2022-10-18T11:17:58;18.90;99.90
23087;DHT22;11712;51.134;4.156;2022-10-18T11:20:42;19.10;99.90
23087;DHT22;11712;51.134;4.156;2022-10-18T11:23:10;19.10;99.90
23087;DHT22;11712;51.134;4.156;2022-10-18T11:28:26;19.40;99.90
23087;DHT22;11712;51.134;4.156;2022-10-18T11:31:41;19.40;99.90
23087;DHT22;11712;51.134;4.156;2022-10-18T11:46:06;19.80;99.90
23087;DHT22;11712;51.134;4.156;2022-10-18T11:51:39;20.00;99.90
23087;DHT22;11712;51.134;4.156;2022-10-18T11:59:42;20.00;99.90
23087;DHT22;11712;51.134;4.156;2022-10-18T12:05:09;20.30;99.90
23087;DHT22;11712;51.134;4.156;2022-10-18T12:07:50;20.30;99.90
23087;DHT22;11712;51.134;4.156;2022-10-18T12:10:19;20.30;99.90
23087;DHT22;11712;51.134;4.156;2022-10-18T12:12:57;20.50;99.90
23087;DHT22;11712;51.134;4.156;2022-10-18T12:15:27;20.70;99.90
23087;DHT22;11712;51.134;4.156;2022-10-18T12:18:57;20.80;99.90
23087;DHT22;11712;51.134;4.156;2022-10-18T12:21:25;20.40;99.90
23087;DHT22;11712;51.134;4.156;2022-10-18T12:23:58;20.20;99.90
23087;DHT22;11712;51.134;4.156;2022-10-18T12:26:26;20.50;99.90
23087;DHT22;11712;51.134;4.156;2022-10-18T12:31:38;20.00;99.90
23087;DHT22;11712;51.134;4.156;2022-10-18T12:34:27;19.70;99.90
23087;DHT22;11712;51.134;4.156;2022-10-18T12:42:30;19.40;99.90
23087;DHT22;11712;51.134;4.156;2022-10-18T12:45:02;19.30;99.90
23087;DHT22;11712;51.134;4.156;2022-10-18T12:47:28;19.40;99.90
23087;DHT22;11712;51.134;4.156;2022-10-18T12:50:00;19.40;99.90
23087;DHT22;11712;51.134;4.156;2022-10-18T12:52:28;19.60;99.90
23087;DHT22;11712;51.134;4.156;2022-10-18T13:19:20;19.50;99.90
23087;DHT22;11712;51.134;4.156;2022-10-18T13:22:13;19.60;99.90
23087;DHT22;11712;51.134;4.156;2022-10-18T13:27:42;19.80;99.90
23087;DHT22;11712;51.134;4.156;2022-10-18T13:30:17;19.80;99.90
23087;DHT22;11712;51.134;4.156;2022-10-18T13:35:52;20.00;99.90
23087;DHT22;11712;51.134;4.156;2022-10-18T13:41:25;19.70;99.90
23087;DHT22;11712;51.134;4.156;2022-10-18T13:44:24;19.70;99.90
23087;DHT22;11712;51.134;4.156;2022-10-18T14:05:57;19.30;99.90
23087;DHT22;11712;51.134;4.156;2022-10-18T14:11:37;19.50;99.90
23087;DHT22;11712;51.134;4.156;2022-10-18T14:22:24;19.50;99.90
23087;DHT22;11712;51.134;4.156;2022-10-18T14:24:55;19.60;99.90
23087;DHT22;11712;51.134;4.156;2022-10-18T14:27:29;19.40;99.90
23087;DHT22;11712;51.134;4.156;2022-10-18T14:30:17;19.40;99.90
23087;DHT22;11712;51.134;4.156;2022-10-18T14:32:48;19.30;99.90
23087;DHT22;11712;51.134;4.156;2022-10-18T14:35:24;19.10;99.90
23087;DHT22;11712;51.134;4.156;2022-10-18T14:37:52;19.10;99.90
23087;DHT22;11712;51.134;4.156;2022-10-18T14:40:33;19.20;99.90
23087;DHT22;11712;51.134;4.156;2022-10-18T14:43:11;19.20;99.90
23087;DHT22;11712;51.134;4.156;2022-10-18T14:45:37;19.10;99.90
23087;DHT22;11712;51.134;4.156;2022-10-18T14:48:12;19.10;99.90
23087;DHT22;11712;51.134;4.156;2022-10-18T14:50:40;19.10;99.90
23087;DHT22;11712;51.134;4.156;2022-10-18T14:53:10;19.20;99.90
23087;DHT22;11712;51.134;4.156;2022-10-18T14:55:37;19.60;99.90
23087;DHT22;11712;51.134;4.156;2022-10-18T14:58:11;19.80;99.90
23087;DHT22;11712;51.134;4.156;2022-10-18T15:00:38;20.00;99.90
23087;DHT22;11712;51.134;4.156;2022-10-18T15:03:05;20.30;99.90
23087;DHT22;11712;51.134;4.156;2022-10-18T15:05:31;20.50;99.90
23087;DHT22;11712;51.134;4.156;2022-10-18T15:07:58;21.00;99.90
23087;DHT22;11712;51.134;4.156;2022-10-18T15:10:30;20.90;99.90
23087;DHT22;11712;51.134;4.156;2022-10-18T15:12:57;21.30;99.90
23087;DHT22;11712;51.134;4.156;2022-10-18T15:15:28;21.70;99.90
23087;DHT22;11712;51.134;4.156;2022-10-18T15:17:55;21.20;99.90
23087;DHT22;11712;51.134;4.156;2022-10-18T15:20:24;21.00;99.90
23087;DHT22;11712;51.134;4.156;2022-10-18T15:22:51;20.90;99.90
23087;DHT22;11712;51.134;4.156;2022-10-18T15:25:37;21.10;99.90
23087;DHT22;11712;51.134;4.156;2022-10-18T15:28:03;21.00;99.90
23087;DHT22;11712;51.134;4.156;2022-10-18T15:30:35;20.70;99.90
23087;DHT22;11712;51.134;4.156;2022-10-18T15:33:03;20.40;99.90
23087;DHT22;11712;51.134;4.156;2022-10-18T15:35:31;20.50;99.90
23087;DHT22;11712;51.134;4.156;2022-10-18T15:38:14;20.40;99.90
23087;DHT22;11712;51.134;4.156;2022-10-18T15:40:41;20.10;99.90
23087;DHT22;11712;51.134;4.156;2022-10-18T15:45:52;20.10;99.90
23087;DHT22;11712;51.134;4.156;2022-10-18T15:48:27;20.00;99.90
23087;DHT22;11712;51.134;4.156;2022-10-18T15:50:58;19.80;99.90
23087;DHT22;11712;51.134;4.156;2022-10-18T15:53:42;19.30;99.90
23087;DHT22;11712;51.134;4.156;2022-10-18T15:56:43;18.70;99.90
23087;DHT22;11712;51.134;4.156;2022-10-18T15:59:25;18.30;99.90
23087;DHT22;11712;51.134;4.156;2022-10-18T16:01:52;18.20;99.90
23087;DHT22;11712;51.134;4.156;2022-10-18T16:06:43;17.90;99.90
23087;DHT22;11712;51.134;4.156;2022-10-18T16:09:15;17.80;99.90
23087;DHT22;11712;51.134;4.156;2022-10-18T16:11:41;17.70;99.90
23087;DHT22;11712;51.134;4.156;2022-10-18T16:14:07;17.70;99.90
23087;DHT22;11712;51.134;4.156;2022-10-18T16:16:33;17.60;99.90
23087;DHT22;11712;51.134;4.156;2022-10-18T16:18:58;17.50;99.90
23087;DHT22;11712;51.134;4.156;2022-10-18T16:23:53;17.30;99.90
23087;DHT22;11712;51.134;4.156;2022-10-18T16:26:19;17.30;99.90
23087;DHT22;11712;51.134;4.156;2022-10-18T16:28:46;17.20;99.90
23087;DHT22;11712;51.134;4.156;2022-10-18T16:31:23;17.10;99.90
23087;DHT22;11712;51.134;4.156;2022-10-18T16:33:50;17.00;99.90
23087;DHT22;11712;51.134;4.156;2022-10-18T16:36:24;16.90;99.90
23087;DHT22;11712;51.134;4.156;2022-10-18T16:38:50;16.90;99.90
23087;DHT22;11712;51.134;4.156;2022-10-18T16:41:16;16.80;99.90
23087;DHT22;11712;51.134;4.156;2022-10-18T16:43:44;16.70;99.90
23087;DHT22;11712;51.134;4.156;2022-10-18T16:46:31;16.60;99.90
23087;DHT22;11712;51.134;4.156;2022-10-18T16:48:57;16.60;99.90
23087;DHT22;11712;51.134;4.156;2022-10-18T16:51:23;16.50;99.90
23087;DHT22;11712;51.134;4.156;2022-10-18T16:53:50;16.60;99.90
23087;DHT22;11712;51.134;4.156;2022-10-18T16:56:28;16.30;99.90
23087;DHT22;11712;51.134;4.156;2022-10-18T16:58:58;16.30;99.90
23087;DHT22;11712;51.134;4.156;2022-10-18T17:01:24;16.30;99.90
23087;DHT22;11712;51.134;4.156;2022-10-18T17:03:51;16.20;99.90
23087;DHT22;11712;51.134;4.156;2022-10-18T17:06:25;16.20;99.90
23087;DHT22;11712;51.134;4.156;2022-10-18T17:08:52;16.20;99.90
23087;DHT22;11712;51.134;4.156;2022-10-18T17:11:23;16.00;99.90
23087;DHT22;11712;51.134;4.156;2022-10-18T17:13:49;15.90;99.90
23087;DHT22;11712;51.134;4.156;2022-10-18T17:18:56;15.90;99.90
23087;DHT22;11712;51.134;4.156;2022-10-18T17:21:22;15.80;99.90
23087;DHT22;11712;51.134;4.156;2022-10-18T17:23:48;15.80;99.90
23087;DHT22;11712;51.134;4.156;2022-10-18T17:26:22;15.80;99.90
23087;DHT22;11712;51.134;4.156;2022-10-18T17:28:52;15.70;99.90
23087;DHT22;11712;51.134;4.156;2022-10-18T17:31:18;15.60;99.90
23087;DHT22;11712;51.134;4.156;2022-10-18T17:33:43;15.60;99.90
23087;DHT22;11712;51.134;4.156;2022-10-18T17:36:09;15.60;99.90
23087;DHT22;11712;51.134;4.156;2022-10-18T17:38:35;15.60;99.90
23087;DHT22;11712;51.134;4.156;2022-10-18T17:41:10;15.60;99.90
23087;DHT22;11712;51.134;4.156;2022-10-18T17:43:39;15.50;99.90
23087;DHT22;11712;51.134;4.156;2022-10-18T17:46:05;15.50;99.90
23087;DHT22;11712;51.134;4.156;2022-10-18T17:48:31;15.40;99.90
23087;DHT22;11712;51.134;4.156;2022-10-18T17:50:57;15.40;99.90
23087;DHT22;11712;51.134;4.156;2022-10-18T17:53:23;15.40;99.90
23087;DHT22;11712;51.134;4.156;2022-10-18T17:55:59;15.30;99.90
23087;DHT22;11712;51.134;4.156;2022-10-18T17:58:25;15.30;99.90
23087;DHT22;11712;51.134;4.156;2022-10-18T18:00:52;15.30;99.90
23087;DHT22;11712;51.134;4.156;2022-10-18T18:03:18;15.20;99.90
23087;DHT22;11712;51.134;4.156;2022-10-18T18:05:43;15.00;99.90
23087;DHT22;11712;51.134;4.156;2022-10-18T18:08:09;15.10;99.90
23087;DHT22;11712;51.134;4.156;2022-10-18T18:10:35;15.10;99.90
23087;DHT22;11712;51.134;4.156;2022-10-18T18:13:01;15.00;99.90
23087;DHT22;11712;51.134;4.156;2022-10-18T18:15:27;15.00;99.90
23087;DHT22;11712;51.134;4.156;2022-10-18T18:17:52;15.00;99.90
23087;DHT22;11712;51.134;4.156;2022-10-18T18:20:18;14.90;99.90
23087;DHT22;11712;51.134;4.156;2022-10-18T18:22:45;14.80;99.90
23087;DHT22;11712;51.134;4.156;2022-10-18T18:25:11;14.80;99.90
23087;DHT22;11712;51.134;4.156;2022-10-18T18:27:36;14.90;99.90
23087;DHT22;11712;51.134;4.156;2022-10-18T18:30:04;14.70;99.90
23087;DHT22;11712;51.134;4.156;2022-10-18T18:32:30;14.70;99.90
23087;DHT22;11712;51.134;4.156;2022-10-18T18:34:56;14.70;99.90
23087;DHT22;11712;51.134;4.156;2022-10-18T18:37:21;14.70;99.90
23087;DHT22;11712;51.134;4.156;2022-10-18T18:39:47;14.60;99.90
23087;DHT22;11712;51.134;4.156;2022-10-18T18:42:13;14.70;99.90
23087;DHT22;11712;51.134;4.156;2022-10-18T18:44:39;14.50;99.90